createdAt,value
2022-10-21T00:01:55.073Z,53.13
2022-10-21T00:04:21.333Z,53.22
2022-10-21T00:06:47.594Z,54.13
2022-10-21T00:09:14.020Z,53.58
2022-10-21T00:11:40.319Z,56.58
2022-10-21T00:14:06.589Z,53.42
2022-10-21T00:16:32.839Z,53.17
2022-10-21T00:18:59.133Z,51.80
2022-10-21T00:21:25.392Z,53.22
2022-10-21T00:23:51.671Z,49.50
2022-10-21T00:26:17.927Z,49.58
2022-10-21T00:28:44.190Z,50.58
2022-10-21T00:31:10.433Z,49.15
2022-10-21T00:33:36.683Z,48.38
2022-10-21T00:36:03.042Z,50.83
2022-10-21T00:38:29.295Z,48.85
2022-10-21T00:40:55.575Z,52.97
2022-10-21T00:43:21.862Z,58.33
2022-10-21T00:45:48.124Z,58.60
2022-10-21T00:48:14.446Z,57.50
2022-10-21T00:50:42.595Z,59.55
2022-10-21T00:53:09.110Z,56.05
2022-10-21T00:55:35.356Z,56.65
2022-10-21T00:58:01.643Z,52.13
2022-10-21T01:00:27.900Z,53.17
2022-10-21T01:02:54.156Z,49.80
2022-10-21T01:05:20.403Z,51.13
2022-10-21T01:07:47.139Z,57.10
2022-10-21T01:10:13.608Z,54.15
2022-10-21T01:12:39.862Z,47.60
2022-10-21T01:15:06.111Z,49.38
2022-10-21T01:17:44.191Z,49.97
2022-10-21T01:20:11.480Z,49.53
2022-10-21T01:22:37.746Z,48.00
2022-10-21T01:25:03.994Z,49.25
2022-10-21T01:27:30.304Z,47.75
2022-10-21T01:29:56.855Z,54.85
2022-10-21T01:32:23.109Z,56.33
2022-10-21T01:34:49.408Z,61.83
2022-10-21T01:37:15.660Z,58.80
2022-10-21T01:39:41.918Z,58.53
2022-10-21T01:44:41.317Z,56.42
2022-10-21T01:47:07.557Z,48.28
2022-10-21T01:49:33.881Z,56.72
2022-10-21T01:52:00.151Z,58.53
2022-10-21T01:54:26.414Z,56.17
2022-10-21T01:56:52.667Z,57.67
2022-10-21T01:59:18.923Z,57.10
2022-10-21T02:01:45.232Z,56.75
2022-10-21T02:04:11.477Z,54.00
2022-10-21T02:06:37.732Z,55.40
2022-10-21T02:09:04.124Z,52.42
2022-10-21T02:11:30.443Z,50.63
2022-10-21T02:13:56.699Z,52.42
2022-10-21T02:16:22.981Z,48.55
2022-10-21T02:18:49.235Z,43.72
2022-10-21T02:21:15.529Z,47.83
2022-10-21T02:23:41.771Z,49.83
2022-10-21T02:26:08.039Z,50.17
2022-10-21T02:28:34.342Z,76.72
2022-10-21T02:31:02.270Z,76.38
2022-10-21T02:33:28.519Z,73.85
2022-10-21T02:35:54.786Z,52.45
2022-10-21T02:38:21.021Z,44.80
2022-10-21T02:40:47.303Z,46.92
2022-10-21T02:43:13.543Z,49.90
2022-10-21T02:45:39.790Z,51.25
2022-10-21T02:48:06.084Z,51.13
2022-10-21T02:50:32.347Z,50.28
2022-10-21T02:52:58.605Z,77.68
2022-10-21T02:55:24.912Z,77.18
2022-10-21T02:57:51.170Z,82.68
2022-10-21T03:00:17.429Z,72.65
2022-10-21T03:02:43.719Z,68.57
2022-10-21T03:05:10.354Z,74.78
2022-10-21T03:07:36.852Z,68.97
2022-10-21T03:10:03.434Z,83.35
2022-10-21T03:12:29.698Z,60.45
2022-10-21T03:14:55.942Z,62.88
2022-10-21T03:17:25.121Z,61.17
2022-10-21T03:19:51.767Z,64.05
2022-10-21T03:22:18.027Z,69.78
2022-10-21T03:24:44.325Z,64.45
2022-10-21T03:27:10.568Z,62.05
2022-10-21T03:29:36.828Z,64.53
2022-10-21T03:32:03.087Z,63.35
2022-10-21T03:34:29.384Z,70.45
2022-10-21T03:36:55.672Z,79.32
2022-10-21T03:39:21.934Z,76.97
2022-10-21T03:41:48.195Z,88.40
2022-10-21T03:44:14.569Z,94.47
2022-10-21T03:46:40.820Z,92.93
2022-10-21T03:49:11.293Z,90.80
2022-10-21T03:51:41.972Z,60.40
2022-10-21T03:54:08.224Z,60.13
2022-10-21T03:56:34.474Z,64.13
2022-10-21T03:59:00.730Z,67.22
2022-10-21T04:01:27.089Z,86.82
2022-10-21T04:03:53.390Z,59.42
2022-10-21T04:06:19.781Z,68.43
2022-10-21T04:08:46.085Z,64.03
2022-10-21T04:11:12.377Z,62.50
2022-10-21T04:13:38.630Z,62.00
2022-10-21T04:16:04.889Z,61.05
2022-10-21T04:18:31.325Z,67.05
2022-10-21T04:20:57.575Z,67.38
2022-10-21T04:23:24.189Z,64.82
2022-10-21T04:25:50.435Z,61.00
2022-10-21T04:28:16.683Z,66.32
2022-10-21T04:30:43.060Z,64.80
2022-10-21T04:33:09.325Z,62.33
2022-10-21T04:35:35.599Z,61.83
2022-10-21T04:38:01.835Z,62.22
2022-10-21T04:40:28.084Z,70.10
2022-10-21T04:42:54.336Z,69.10
2022-10-21T04:45:20.578Z,65.25
2022-10-21T04:47:46.832Z,74.38
2022-10-21T04:50:13.216Z,62.42
2022-10-21T04:52:39.722Z,60.92
2022-10-21T04:55:06.088Z,59.10
2022-10-21T04:57:32.345Z,61.85
2022-10-21T04:59:58.586Z,60.20
2022-10-21T05:02:25.643Z,58.50
2022-10-21T05:04:52.076Z,54.80
2022-10-21T05:07:18.342Z,53.85
2022-10-21T05:09:44.599Z,53.05
2022-10-21T05:12:10.999Z,53.40
2022-10-21T05:14:37.465Z,50.15
2022-10-21T05:17:03.760Z,53.67
2022-10-21T05:19:31.376Z,52.33
2022-10-21T05:21:57.990Z,51.58
2022-10-21T05:24:24.243Z,51.83
2022-10-21T05:26:51.446Z,54.30
2022-10-21T05:29:17.636Z,50.90
2022-10-21T05:31:43.934Z,52.50
2022-10-21T05:34:10.211Z,54.70
2022-10-21T05:36:36.473Z,54.67
2022-10-21T05:39:02.888Z,51.92
2022-10-21T05:41:29.129Z,58.80
2022-10-21T05:43:55.421Z,55.25
2022-10-21T05:46:21.686Z,66.15
2022-10-21T05:51:25.353Z,87.13
2022-10-21T05:53:51.604Z,75.57
2022-10-21T05:56:17.886Z,61.65
2022-10-21T05:58:44.136Z,60.47
2022-10-21T06:01:10.751Z,91.40
2022-10-21T06:03:37.057Z,87.05
2022-10-21T06:06:03.480Z,99.20
2022-10-21T06:08:29.786Z,59.97
2022-10-21T06:10:56.104Z,101.22
2022-10-21T06:13:22.360Z,88.60
2022-10-21T06:15:51.038Z,78.38
2022-10-21T06:18:17.446Z,65.38
2022-10-21T06:20:43.706Z,66.50
2022-10-21T06:23:12.214Z,62.30
2022-10-21T06:25:38.496Z,92.03
2022-10-21T06:28:04.745Z,107.40
2022-10-21T06:30:31.092Z,91.43
2022-10-21T06:32:57.350Z,68.75
2022-10-21T06:35:23.616Z,62.65
2022-10-21T06:37:49.873Z,60.70
2022-10-21T06:40:16.162Z,55.97
2022-10-21T06:42:42.424Z,89.53
2022-10-21T06:45:08.879Z,93.32
2022-10-21T06:47:35.139Z,90.28
2022-10-21T06:50:03.441Z,99.40
2022-10-21T06:52:30.032Z,60.03
2022-10-21T06:54:56.293Z,57.10
2022-10-21T06:57:22.581Z,51.65
2022-10-21T06:59:48.912Z,54.40
2022-10-21T07:02:15.172Z,55.65
2022-10-21T07:04:44.891Z,56.17
2022-10-21T07:07:11.175Z,59.30
2022-10-21T07:09:37.675Z,59.20
2022-10-21T07:12:04.515Z,57.63
2022-10-21T07:14:30.925Z,59.45
2022-10-21T07:16:57.167Z,53.00
2022-10-21T07:19:23.416Z,55.47
2022-10-21T07:21:49.679Z,68.40
2022-10-21T07:24:18.737Z,68.13
2022-10-21T07:26:46.887Z,73.97
2022-10-21T07:29:13.163Z,77.90
2022-10-21T07:31:39.459Z,68.00
2022-10-21T07:34:05.746Z,63.97
2022-10-21T07:36:32.037Z,69.72
2022-10-21T07:38:58.286Z,65.57
2022-10-21T07:41:24.542Z,67.82
2022-10-21T07:43:50.821Z,66.45
2022-10-21T07:46:17.088Z,62.88
2022-10-21T07:48:43.382Z,63.95
2022-10-21T07:51:09.661Z,61.75
2022-10-21T07:53:35.980Z,62.60
2022-10-21T07:56:02.232Z,67.88
2022-10-21T07:58:28.482Z,63.60
2022-10-21T08:00:54.776Z,71.90
2022-10-21T08:03:21.052Z,85.72
2022-10-21T08:05:51.118Z,94.82
2022-10-21T08:08:17.435Z,97.70
2022-10-21T08:10:43.778Z,98.55
2022-10-21T08:13:10.184Z,67.45
2022-10-21T08:15:36.452Z,58.70
2022-10-21T08:18:02.725Z,66.32
2022-10-21T08:20:28.998Z,58.90
2022-10-21T08:22:55.258Z,56.67
2022-10-21T08:25:21.506Z,58.28
2022-10-21T08:27:47.859Z,54.85
2022-10-21T08:30:15.484Z,56.72
2022-10-21T08:32:41.797Z,63.10
2022-10-21T08:35:08.067Z,66.85
2022-10-21T08:37:34.319Z,68.35
2022-10-21T08:40:00.619Z,76.75
2022-10-21T08:42:26.891Z,57.30
2022-10-21T08:44:53.145Z,48.03
2022-10-21T08:47:19.434Z,54.90
2022-10-21T08:49:45.700Z,57.20
2022-10-21T08:52:11.952Z,49.25
2022-10-21T08:54:38.218Z,76.47
2022-10-21T08:57:04.466Z,60.30
2022-10-21T08:59:30.882Z,47.67
2022-10-21T09:01:57.136Z,49.20
2022-10-21T09:04:23.400Z,83.82
2022-10-21T09:06:49.642Z,81.53
2022-10-21T09:09:15.964Z,100.22
2022-10-21T09:11:42.296Z,71.65
2022-10-21T09:14:08.547Z,53.40
2022-10-21T09:16:34.953Z,47.03
2022-10-21T09:19:01.203Z,52.72
2022-10-21T09:21:27.447Z,55.80
2022-10-21T09:23:53.775Z,44.17
2022-10-21T09:26:20.080Z,49.35
2022-10-21T09:28:46.340Z,47.05
2022-10-21T09:31:12.600Z,48.25
2022-10-21T09:33:38.919Z,54.50
2022-10-21T09:36:05.183Z,50.90
2022-10-21T09:38:31.483Z,54.88
2022-10-21T09:41:03.038Z,59.70
2022-10-21T09:43:29.307Z,55.28
2022-10-21T09:45:55.547Z,61.47
2022-10-21T09:48:21.803Z,58.38
2022-10-21T09:50:48.047Z,58.42
2022-10-21T09:53:14.298Z,59.05
2022-10-21T09:55:40.616Z,51.90
2022-10-21T09:58:06.881Z,52.78
2022-10-21T10:00:33.149Z,49.17
2022-10-21T10:02:59.452Z,51.47
2022-10-21T10:05:25.706Z,52.55
2022-10-21T10:07:52.109Z,53.97
2022-10-21T10:10:18.369Z,54.55
2022-10-21T10:12:44.621Z,62.13
2022-10-21T10:15:10.877Z,63.55
2022-10-21T10:17:38.566Z,60.85
2022-10-21T10:20:05.173Z,65.28
2022-10-21T10:22:31.655Z,60.42
2022-10-21T10:24:57.916Z,64.90
2022-10-21T10:27:26.494Z,63.80
2022-10-21T10:29:53.429Z,62.15
2022-10-21T10:32:19.671Z,63.95
2022-10-21T10:34:45.927Z,60.13
2022-10-21T10:37:12.220Z,60.10
2022-10-21T10:39:38.475Z,65.47
2022-10-21T10:42:04.731Z,59.08
2022-10-21T10:44:30.986Z,61.05
2022-10-21T10:46:57.288Z,65.32
2022-10-21T10:49:23.628Z,64.90
2022-10-21T10:51:49.931Z,71.10
2022-10-21T10:54:17.346Z,64.88
2022-10-21T10:56:43.606Z,66.95
2022-10-21T10:59:09.850Z,62.53
2022-10-21T11:01:36.144Z,57.15
2022-10-21T11:04:02.602Z,49.75
2022-10-21T11:06:28.889Z,56.25
2022-10-21T11:08:55.195Z,56.35
2022-10-21T11:11:21.674Z,73.70
2022-10-21T11:13:47.977Z,108.90
2022-10-21T11:16:14.260Z,98.22
2022-10-21T11:18:40.511Z,109.15
2022-10-21T11:21:07.481Z,72.53
2022-10-21T11:23:33.725Z,63.70
2022-10-21T11:25:59.987Z,65.60
2022-10-21T11:28:26.255Z,67.95
2022-10-21T11:30:52.503Z,66.55
2022-10-21T11:33:18.760Z,67.05
2022-10-21T11:35:45.038Z,61.25
2022-10-21T11:38:11.312Z,70.07
2022-10-21T11:40:37.598Z,71.95
2022-10-21T11:43:03.872Z,71.07
2022-10-21T11:45:30.190Z,70.53
2022-10-21T11:47:56.441Z,79.68
2022-10-21T11:50:22.693Z,78.65
2022-10-21T11:52:48.975Z,70.90
2022-10-21T11:55:15.835Z,67.35
2022-10-21T11:57:42.157Z,68.95
2022-10-21T12:00:08.469Z,66.68
2022-10-21T12:02:34.797Z,68.20
2022-10-21T12:05:01.080Z,69.28
2022-10-21T12:07:27.420Z,73.32
2022-10-21T12:09:53.682Z,69.13
2022-10-21T12:12:19.939Z,70.50
2022-10-21T12:14:46.214Z,68.07
2022-10-21T12:17:12.467Z,67.78
2022-10-21T12:19:38.732Z,68.35
2022-10-21T12:22:05.010Z,66.30
2022-10-21T12:24:32.045Z,67.93
2022-10-21T12:26:58.232Z,67.80
2022-10-21T12:29:24.501Z,62.08
2022-10-21T12:31:50.760Z,61.10
2022-10-21T12:34:17.045Z,60.72
2022-10-21T12:36:43.310Z,67.55
2022-10-21T12:39:09.639Z,68.43
2022-10-21T12:41:36.108Z,84.55
2022-10-21T12:44:02.730Z,117.38
2022-10-21T12:46:28.982Z,131.60
2022-10-21T12:48:55.260Z,90.05
2022-10-21T12:51:46.843Z,59.85
2022-10-21T12:54:13.270Z,55.58
2022-10-21T12:56:39.569Z,117.97
2022-10-21T12:59:09.955Z,77.97
2022-10-21T13:01:36.270Z,122.38
2022-10-21T13:04:02.567Z,104.22
2022-10-21T13:06:28.859Z,71.43
2022-10-21T13:08:55.545Z,67.47
2022-10-21T13:11:22.874Z,65.95
2022-10-21T13:13:49.939Z,76.53
2022-10-21T13:16:20.049Z,74.35
2022-10-21T13:18:46.313Z,93.05
2022-10-21T13:21:12.592Z,77.15
2022-10-21T13:23:38.869Z,95.22
2022-10-21T13:26:05.198Z,91.70
2022-10-21T13:28:31.494Z,77.38
2022-10-21T13:30:57.830Z,73.22
2022-10-21T13:33:24.079Z,83.35
2022-10-21T13:35:50.408Z,85.38
2022-10-21T13:38:16.667Z,76.78
2022-10-21T13:40:42.937Z,80.45
2022-10-21T13:43:09.216Z,91.20
2022-10-21T13:45:35.501Z,69.85
2022-10-21T13:48:01.787Z,114.72
2022-10-21T13:50:28.405Z,111.10
2022-10-21T13:52:54.684Z,89.97
2022-10-21T13:55:20.994Z,72.85
2022-10-21T13:57:47.265Z,84.68
2022-10-21T14:00:13.533Z,110.97
2022-10-21T14:02:39.805Z,88.15
2022-10-21T14:05:06.052Z,86.63
2022-10-21T14:07:32.336Z,62.58
2022-10-21T14:09:58.952Z,91.97
2022-10-21T14:12:25.226Z,80.28
2022-10-21T14:14:51.624Z,68.55
2022-10-21T14:17:17.883Z,62.90
2022-10-21T14:19:44.147Z,68.25
2022-10-21T14:22:10.623Z,64.18
2022-10-21T14:24:37.030Z,54.15
2022-10-21T14:29:53.608Z,61.45
2022-10-21T14:32:22.923Z,59.95
2022-10-21T14:34:49.177Z,61.95
2022-10-21T14:37:15.443Z,62.88
2022-10-21T14:39:41.695Z,66.95
2022-10-21T14:42:08.128Z,69.07
2022-10-21T14:44:34.458Z,61.42
2022-10-21T14:47:00.754Z,60.28
2022-10-21T14:49:27.053Z,57.55
2022-10-21T14:51:53.299Z,58.03
2022-10-21T14:54:19.544Z,76.88
2022-10-21T14:56:46.732Z,80.05
2022-10-21T14:59:12.919Z,71.40
2022-10-21T15:01:39.181Z,76.85
2022-10-21T15:04:05.429Z,74.55
2022-10-21T15:06:32.635Z,80.60
2022-10-21T15:08:58.972Z,73.38
2022-10-21T15:11:25.452Z,78.40
2022-10-21T15:13:51.712Z,67.53
2022-10-21T15:16:17.954Z,63.88
2022-10-21T15:18:45.436Z,54.75
2022-10-21T15:21:11.691Z,57.05
2022-10-21T15:23:37.965Z,65.32
2022-10-21T15:26:05.850Z,73.63
2022-10-21T15:28:32.143Z,99.38
2022-10-21T15:30:59.540Z,122.15
2022-10-21T15:33:26.495Z,104.53
2022-10-21T15:35:52.983Z,81.28
2022-10-21T15:38:19.230Z,63.50
2022-10-21T15:40:45.487Z,101.35
2022-10-21T15:43:11.759Z,109.57
2022-10-21T15:45:41.881Z,112.20
2022-10-21T15:48:08.150Z,182.63
2022-10-21T15:50:36.527Z,139.80
2022-10-21T15:53:02.785Z,107.90
2022-10-21T15:55:29.078Z,123.13
2022-10-21T15:57:55.345Z,99.88
2022-10-21T16:00:21.693Z,83.28
2022-10-21T16:02:48.000Z,71.40
2022-10-21T16:05:14.283Z,84.65
2022-10-21T16:07:40.951Z,97.85
2022-10-21T16:10:07.208Z,131.48
2022-10-21T16:12:33.554Z,118.47
2022-10-21T16:14:59.802Z,143.77
2022-10-21T16:17:28.538Z,104.43
2022-10-21T16:19:54.910Z,109.60
2022-10-21T16:22:21.216Z,170.55
2022-10-21T16:24:47.490Z,140.27
2022-10-21T16:27:13.802Z,172.95
2022-10-21T16:29:40.076Z,103.63
2022-10-21T16:32:06.408Z,73.68
2022-10-21T16:34:32.665Z,80.30
2022-10-21T16:36:58.967Z,77.15
2022-10-21T16:39:25.516Z,123.07
2022-10-21T16:41:52.150Z,76.53
2022-10-21T16:44:18.418Z,67.50
2022-10-21T16:46:44.668Z,71.28
2022-10-21T16:49:12.179Z,58.25
2022-10-21T16:51:39.448Z,62.05
2022-10-21T16:54:05.770Z,58.15
2022-10-21T16:56:32.028Z,66.57
2022-10-21T16:58:58.300Z,69.90
2022-10-21T17:01:24.677Z,72.47
2022-10-21T17:03:51.024Z,81.47
2022-10-21T17:06:17.303Z,76.03
2022-10-21T17:08:43.640Z,70.72
2022-10-21T17:11:09.949Z,71.60
2022-10-21T17:13:36.193Z,73.20
2022-10-21T17:16:05.955Z,82.47
2022-10-21T17:18:32.213Z,72.32
2022-10-21T17:20:58.488Z,70.68
2022-10-21T17:23:24.744Z,65.45
2022-10-21T17:25:51.005Z,66.45
2022-10-21T17:28:17.250Z,77.32
2022-10-21T17:30:43.512Z,65.18
2022-10-21T17:33:13.318Z,72.43
2022-10-21T17:35:40.535Z,72.18
2022-10-21T17:38:06.808Z,78.00
2022-10-21T17:40:33.068Z,62.60
2022-10-21T17:42:59.404Z,61.35
2022-10-21T17:45:25.653Z,58.17
2022-10-21T17:47:51.923Z,67.38
2022-10-21T17:50:24.037Z,56.00
2022-10-21T17:55:40.710Z,60.15
2022-10-21T17:58:06.966Z,57.58
2022-10-21T18:00:33.236Z,61.55
2022-10-21T18:02:59.487Z,70.45
2022-10-21T18:05:25.784Z,65.63
2022-10-21T18:07:52.091Z,68.53
2022-10-21T18:10:18.358Z,73.22
2022-10-21T18:12:44.600Z,81.93
2022-10-21T18:15:10.856Z,75.13
2022-10-21T18:17:39.866Z,66.18
2022-10-21T18:20:06.957Z,73.10
2022-10-21T18:22:33.224Z,100.85
2022-10-21T18:24:59.486Z,101.82
2022-10-21T18:27:25.735Z,89.43
2022-10-21T18:29:51.981Z,93.68
2022-10-21T18:32:18.367Z,89.07
2022-10-21T18:34:44.611Z,84.63
2022-10-21T18:37:10.865Z,93.13
2022-10-21T18:39:37.148Z,106.43
2022-10-21T18:42:03.395Z,79.93
2022-10-21T18:44:30.319Z,211.43
2022-10-21T18:46:56.575Z,253.43
2022-10-21T18:49:22.903Z,178.10
2022-10-21T18:51:49.163Z,126.60
2022-10-21T18:54:15.669Z,78.55
2022-10-21T18:56:41.975Z,76.05
2022-10-21T18:59:09.834Z,83.03
2022-10-21T19:01:39.854Z,74.82
2022-10-21T19:04:06.263Z,99.13
2022-10-21T19:06:32.540Z,94.43
2022-10-21T19:09:00.877Z,85.82
2022-10-21T19:11:27.238Z,80.88
2022-10-21T19:13:53.493Z,91.50
2022-10-21T19:16:19.806Z,78.95
2022-10-21T19:18:46.067Z,72.82
2022-10-21T19:21:12.947Z,68.15
2022-10-21T19:23:39.209Z,74.13
2022-10-21T19:26:05.508Z,77.38
2022-10-21T19:28:31.771Z,79.18
2022-10-21T19:30:58.031Z,101.60
2022-10-21T19:33:24.314Z,126.82
2022-10-21T19:35:50.573Z,171.68
2022-10-21T19:38:26.190Z,225.75
2022-10-21T19:40:58.828Z,201.95
2022-10-21T19:43:25.120Z,181.77
2022-10-21T19:45:53.009Z,209.77
2022-10-21T19:48:19.296Z,130.30
2022-10-21T19:50:45.616Z,208.60
2022-10-21T19:53:11.867Z,238.50
2022-10-21T19:55:38.149Z,232.10
2022-10-21T19:58:04.398Z,228.35
2022-10-21T20:00:30.650Z,233.32
2022-10-21T20:02:56.907Z,195.00
2022-10-21T20:05:23.179Z,226.48
2022-10-21T20:07:49.427Z,225.23
2022-10-21T20:10:15.706Z,231.98
2022-10-21T20:12:42.256Z,178.80
2022-10-21T20:15:08.696Z,225.65
2022-10-21T20:17:35.083Z,233.07
2022-10-21T20:20:01.355Z,167.93
2022-10-21T20:22:27.645Z,95.93
2022-10-21T20:24:53.890Z,63.67
2022-10-21T20:27:23.737Z,66.88
2022-10-21T20:29:49.992Z,81.80
2022-10-21T20:32:16.278Z,97.40
2022-10-21T20:34:43.410Z,74.28
2022-10-21T20:37:09.609Z,64.67
2022-10-21T20:39:35.866Z,69.60
2022-10-21T20:42:02.210Z,79.85
2022-10-21T20:44:28.481Z,123.28
2022-10-21T20:46:54.735Z,139.15
2022-10-21T20:49:20.974Z,124.45
2022-10-21T20:51:47.275Z,111.47
2022-10-21T20:54:13.532Z,110.82
2022-10-21T20:56:39.800Z,96.75
2022-10-21T20:59:06.035Z,81.65
2022-10-21T21:01:32.411Z,80.10
2022-10-21T21:03:58.745Z,98.07
2022-10-21T21:06:25.014Z,113.40
2022-10-21T21:09:08.557Z,129.57
2022-10-21T21:11:37.506Z,134.23
2022-10-21T21:14:03.776Z,146.35
2022-10-21T21:16:30.043Z,147.10
2022-10-21T21:18:56.314Z,148.77
2022-10-21T21:21:22.563Z,184.38
2022-10-21T21:23:49.004Z,170.88
2022-10-21T21:26:15.273Z,144.73
2022-10-21T21:28:41.568Z,98.97
2022-10-21T21:31:07.826Z,107.18
2022-10-21T21:33:34.089Z,117.05
2022-10-21T21:36:00.353Z,100.35
2022-10-21T21:38:26.623Z,102.00
2022-10-21T21:40:53.261Z,107.63
2022-10-21T21:43:19.543Z,106.05
2022-10-21T21:45:45.854Z,126.43
2022-10-21T21:48:12.209Z,156.70
2022-10-21T21:50:38.503Z,187.38
2022-10-21T21:53:04.751Z,159.43
2022-10-21T21:55:31.005Z,162.57
2022-10-21T21:57:57.267Z,145.65
2022-10-21T22:00:23.540Z,117.88
2022-10-21T22:02:49.803Z,122.65
2022-10-21T22:05:16.155Z,105.38
2022-10-21T22:07:42.697Z,138.68
2022-10-21T22:10:09.155Z,168.15
2022-10-21T22:12:35.407Z,150.73
2022-10-21T22:15:01.868Z,179.25
2022-10-21T22:17:28.385Z,156.77
2022-10-21T22:19:54.650Z,149.82
2022-10-21T22:22:20.918Z,142.90
2022-10-21T22:24:47.169Z,146.77
2022-10-21T22:27:13.436Z,155.35
2022-10-21T22:29:39.686Z,168.70
2022-10-21T22:32:05.984Z,167.50
2022-10-21T22:34:32.245Z,163.02
2022-10-21T22:36:58.494Z,159.23
2022-10-21T22:39:25.605Z,146.25
2022-10-21T22:41:51.801Z,141.33
2022-10-21T22:44:18.104Z,127.38
2022-10-21T22:46:44.367Z,99.50
2022-10-21T22:49:10.648Z,94.15
2022-10-21T22:51:36.905Z,86.78
2022-10-21T22:54:03.498Z,96.50
2022-10-21T22:56:29.971Z,89.32
2022-10-21T22:58:57.435Z,82.15
2022-10-21T23:01:26.556Z,89.85
2022-10-21T23:03:52.808Z,87.93
2022-10-21T23:06:19.147Z,81.47
2022-10-21T23:08:45.433Z,97.47
2022-10-21T23:11:11.730Z,97.05
2022-10-21T23:13:38.011Z,125.13
2022-10-21T23:16:04.303Z,109.05
2022-10-21T23:18:30.574Z,122.18
2022-10-21T23:20:56.830Z,101.13
2022-10-21T23:23:23.099Z,98.35
2022-10-21T23:25:49.369Z,95.10
2022-10-21T23:28:15.670Z,99.00
2022-10-21T23:30:43.202Z,116.18
2022-10-21T23:33:09.511Z,121.85
2022-10-21T23:35:35.772Z,97.80
2022-10-21T23:38:02.086Z,97.68
2022-10-21T23:40:28.334Z,97.43
2022-10-21T23:42:54.603Z,112.63
2022-10-21T23:45:20.846Z,155.15
2022-10-21T23:47:47.101Z,174.85
2022-10-21T23:50:13.368Z,176.15
2022-10-21T23:52:39.665Z,154.27
2022-10-21T23:55:05.924Z,139.80
2022-10-21T23:57:32.182Z,142.30
2022-10-21T23:59:58.430Z,102.35
